createdAt,value
2022-09-12T00:01:54.202Z,99549.81
2022-09-12T00:04:24.388Z,99552.13
2022-09-12T00:06:54.563Z,99551.78
2022-09-12T00:09:24.887Z,99555.06
2022-09-12T00:11:55.132Z,99553.72
2022-09-12T00:14:25.298Z,99545.44
2022-09-12T00:17:00.725Z,99540.06
2022-09-12T00:19:31.438Z,99552.34
2022-09-12T00:22:01.696Z,99558.50
2022-09-12T00:24:31.837Z,99555.31
2022-09-12T00:27:01.971Z,99556.47
2022-09-12T00:29:32.075Z,99567.25
2022-09-12T00:32:05.360Z,99573.56
2022-09-12T00:34:35.557Z,99576.88
2022-09-12T00:37:06.222Z,99577.19
2022-09-12T00:39:36.653Z,99575.22
2022-09-12T00:42:07.038Z,99570.06
2022-09-12T00:44:50.504Z,99571.06
2022-09-12T00:47:26.929Z,99552.91
2022-09-12T00:50:06.139Z,99568.38
2022-09-12T00:52:40.357Z,99574.00
2022-09-12T00:55:15.850Z,99568.84
2022-09-12T00:57:52.072Z,99564.69
2022-09-12T01:00:25.516Z,99566.50
2022-09-12T01:03:01.452Z,99561.34
2022-09-12T01:05:34.248Z,99568.13
2022-09-12T01:08:06.617Z,99572.34
2022-09-12T01:10:38.973Z,99573.66
2022-09-12T01:13:11.965Z,99586.28
2022-09-12T01:15:43.294Z,99584.28
2022-09-12T01:18:22.342Z,99585.28
2022-09-12T01:21:22.910Z,99576.63
2022-09-12T01:24:25.708Z,99583.91
2022-09-12T01:27:26.886Z,99589.53
2022-09-12T01:30:08.795Z,99585.19
2022-09-12T01:32:54.484Z,99592.75
2022-09-12T01:35:31.381Z,99586.19
2022-09-12T01:38:13.130Z,99585.50
2022-09-12T01:40:49.941Z,99589.94
2022-09-12T01:43:26.879Z,99578.88
2022-09-12T01:46:04.287Z,99574.41
2022-09-12T01:48:41.960Z,99583.34
2022-09-12T01:51:18.203Z,99588.81
2022-09-12T01:53:53.708Z,99582.13
2022-09-12T01:56:29.870Z,99580.78
2022-09-12T01:59:08.286Z,99587.56
2022-09-12T02:01:43.259Z,99579.59
2022-09-12T02:04:21.119Z,99578.38
2022-09-12T02:06:56.465Z,99580.50
2022-09-12T02:09:30.940Z,99577.47
2022-09-12T02:12:03.739Z,99588.50
2022-09-12T02:14:39.502Z,99587.19
2022-09-12T02:17:14.246Z,99588.16
2022-09-12T02:19:52.272Z,99583.00
2022-09-12T02:22:25.678Z,99578.53
2022-09-12T02:24:58.733Z,99581.63
2022-09-12T02:27:33.731Z,99585.41
2022-09-12T02:30:04.450Z,99582.53
2022-09-12T02:32:39.848Z,99579.03
2022-09-12T02:35:22.140Z,99580.31
2022-09-12T02:38:00.447Z,99572.84
2022-09-12T02:40:31.281Z,99577.47
2022-09-12T02:43:01.596Z,99590.84
2022-09-12T02:45:34.345Z,99582.38
2022-09-12T02:48:07.598Z,99587.97
2022-09-12T02:50:41.134Z,99579.47
2022-09-12T02:53:12.229Z,99579.78
2022-09-12T02:55:44.742Z,99580.34
2022-09-12T02:58:18.527Z,99588.13
2022-09-12T03:00:54.640Z,99591.75
2022-09-12T03:03:43.458Z,99584.50
2022-09-12T03:06:22.144Z,99581.47
2022-09-12T03:09:05.897Z,99585.47
2022-09-12T03:11:58.117Z,99586.63
2022-09-12T03:14:52.161Z,99587.75
2022-09-12T03:17:31.463Z,99584.28
2022-09-12T03:20:10.159Z,99578.28
2022-09-12T03:22:54.166Z,99585.81
2022-09-12T03:25:30.884Z,99575.41
2022-09-12T03:28:07.531Z,99584.72
2022-09-12T03:30:41.231Z,99581.66
2022-09-12T03:33:13.706Z,99586.28
2022-09-12T03:35:44.230Z,99571.72
2022-09-12T03:38:17.291Z,99592.16
2022-09-12T03:40:50.361Z,99588.81
2022-09-12T03:43:24.251Z,99582.16
2022-09-12T03:45:55.044Z,99589.13
2022-09-12T03:48:25.277Z,99590.63
2022-09-12T03:50:55.425Z,99597.91
2022-09-12T03:53:28.161Z,99600.56
2022-09-12T03:55:58.279Z,99599.03
2022-09-12T03:58:34.019Z,99601.69
2022-09-12T04:01:04.135Z,99601.69
2022-09-12T04:03:34.310Z,99602.66
2022-09-12T04:06:04.471Z,99602.81
2022-09-12T04:08:37.611Z,99598.50
2022-09-12T04:11:08.734Z,99597.66
2022-09-12T04:13:39.968Z,99608.25
2022-09-12T04:16:10.715Z,99607.25
2022-09-12T04:18:41.211Z,99612.84
2022-09-12T04:21:13.589Z,99615.19
2022-09-12T04:23:46.736Z,99607.25
2022-09-12T04:26:18.435Z,99607.25
2022-09-12T04:28:50.443Z,99613.25
2022-09-12T04:31:22.897Z,99610.81
2022-09-12T04:33:58.225Z,99617.66
2022-09-12T04:36:29.370Z,99614.03
2022-09-12T04:39:03.348Z,99611.09
2022-09-12T04:41:34.761Z,99616.94
2022-09-12T04:44:07.459Z,99620.13
2022-09-12T04:46:39.676Z,99623.47
2022-09-12T04:49:10.435Z,99623.03
2022-09-12T04:51:42.753Z,99624.38
2022-09-12T04:54:18.715Z,99635.94
2022-09-12T04:56:50.786Z,99634.81
2022-09-12T04:59:22.736Z,99635.22
2022-09-12T05:01:53.106Z,99631.81
2022-09-12T05:04:23.680Z,99640.81
2022-09-12T05:06:53.796Z,99638.56
2022-09-12T05:09:26.635Z,99642.97
2022-09-12T05:12:05.348Z,99646.31
2022-09-12T05:14:36.844Z,99645.16
2022-09-12T05:17:08.108Z,99638.44
2022-09-12T05:19:38.269Z,99640.34
2022-09-12T05:22:08.549Z,99650.88
2022-09-12T05:24:47.252Z,99652.59
2022-09-12T05:27:20.266Z,99651.72
2022-09-12T05:29:50.446Z,99657.13
2022-09-12T05:32:20.890Z,99643.53
2022-09-12T05:34:51.114Z,99648.19
2022-09-12T05:37:21.263Z,99652.47
2022-09-12T05:39:54.223Z,99653.63
2022-09-12T05:42:24.875Z,99654.97
2022-09-12T05:44:55.461Z,99661.34
2022-09-12T05:47:25.597Z,99657.63
2022-09-12T05:49:56.109Z,99662.50
2022-09-12T05:52:26.642Z,99659.50
2022-09-12T05:54:59.377Z,99656.22
2022-09-12T05:57:29.488Z,99662.38
2022-09-12T05:59:59.825Z,99663.34
2022-09-12T06:02:30.699Z,99662.38
2022-09-12T06:05:01.090Z,99661.53
2022-09-12T06:07:32.167Z,99654.81
2022-09-12T06:10:05.547Z,99651.91
2022-09-12T06:12:35.683Z,99656.94
2022-09-12T06:15:05.883Z,99658.41
2022-09-12T06:17:36.027Z,99654.28
2022-09-12T06:20:06.986Z,99660.00
2022-09-12T06:22:37.121Z,99665.78
2022-09-12T06:25:10.985Z,99657.13
2022-09-12T06:27:40.827Z,99658.75
2022-09-12T06:30:12.258Z,99657.22
2022-09-12T06:32:42.497Z,99653.41
2022-09-12T06:35:13.901Z,99663.69
2022-09-12T06:37:46.818Z,99662.81
2022-09-12T06:40:19.886Z,99662.56
2022-09-12T06:42:50.032Z,99661.72
2022-09-12T06:45:21.009Z,99661.84
2022-09-12T06:47:51.516Z,99666.50
2022-09-12T06:50:22.133Z,99668.53
2022-09-12T06:52:52.679Z,99660.53
2022-09-12T06:55:27.738Z,99668.91
2022-09-12T06:57:58.512Z,99668.66
2022-09-12T07:00:28.747Z,99661.53
2022-09-12T07:02:59.330Z,99664.72
2022-09-12T07:05:29.565Z,99664.59
2022-09-12T07:07:59.760Z,99666.13
2022-09-12T07:10:33.872Z,99670.31
2022-09-12T07:13:03.727Z,99669.25
2022-09-12T07:15:33.817Z,99667.41
2022-09-12T07:18:04.158Z,99668.44
2022-09-12T07:20:37.306Z,99671.94
2022-09-12T07:23:07.498Z,99667.78
2022-09-12T07:25:40.222Z,99657.25
2022-09-12T07:28:10.498Z,99665.97
2022-09-12T07:30:41.376Z,99664.09
2022-09-12T07:33:11.942Z,99664.09
2022-09-12T07:35:42.140Z,99669.81
2022-09-12T07:38:12.306Z,99668.56
2022-09-12T07:40:45.120Z,99665.66
2022-09-12T07:43:15.353Z,99659.53
2022-09-12T07:45:45.484Z,99671.88
2022-09-12T07:48:16.512Z,99667.31
2022-09-12T07:50:47.001Z,99663.50
2022-09-12T07:53:17.200Z,99672.81
2022-09-12T07:56:05.623Z,99669.41
2022-09-12T07:58:38.205Z,99666.34
2022-09-12T08:01:10.265Z,99672.44
2022-09-12T08:03:41.104Z,99667.06
2022-09-12T08:06:14.075Z,99668.44
2022-09-12T08:08:45.322Z,99667.44
2022-09-12T08:11:21.213Z,99673.03
2022-09-12T08:13:55.215Z,99675.13
2022-09-12T08:16:27.832Z,99664.34
2022-09-12T08:18:58.702Z,99660.50
2022-09-12T08:21:30.577Z,99664.22
2022-09-12T08:24:02.243Z,99664.47
2022-09-12T08:26:37.102Z,99660.06
2022-09-12T08:29:07.768Z,99664.41
2022-09-12T08:31:39.198Z,99670.25
2022-09-12T08:34:09.914Z,99657.53
2022-09-12T08:36:41.064Z,99656.25
2022-09-12T08:39:11.301Z,99658.72
2022-09-12T08:41:46.318Z,99659.13
2022-09-12T08:44:37.518Z,99652.88
2022-09-12T08:47:22.779Z,99641.00
2022-09-12T08:50:00.578Z,99643.31
2022-09-12T08:52:37.407Z,99646.75
2022-09-12T08:55:14.843Z,99654.25
2022-09-12T08:57:47.683Z,99647.38
2022-09-12T09:00:21.647Z,99651.03
2022-09-12T09:03:17.629Z,99647.13
2022-09-12T09:05:53.288Z,99644.47
2022-09-12T09:08:41.269Z,99651.13
2022-09-12T09:11:24.218Z,99657.06
2022-09-12T09:14:23.004Z,99641.47
2022-09-12T09:16:55.648Z,99641.78
2022-09-12T09:19:28.993Z,99632.66
2022-09-12T09:22:04.295Z,99643.13
2022-09-12T09:24:46.852Z,99649.03
2022-09-12T09:27:39.865Z,99627.41
2022-09-12T09:30:17.745Z,99638.47
2022-09-12T09:32:53.004Z,99633.53
2022-09-12T09:35:36.321Z,99628.31
2022-09-12T09:38:21.750Z,99623.81
2022-09-12T09:41:00.587Z,99634.59
2022-09-12T09:43:31.377Z,99631.56
2022-09-12T09:46:04.317Z,99637.56
2022-09-12T09:48:37.863Z,99638.06
2022-09-12T09:51:09.875Z,99633.47
2022-09-12T09:53:47.905Z,99634.63
2022-09-12T09:56:29.429Z,99623.88
2022-09-12T09:58:59.821Z,99627.03
2022-09-12T10:01:32.872Z,99627.09
2022-09-12T10:04:03.293Z,99626.63
2022-09-12T10:06:35.193Z,99614.44
2022-09-12T10:09:20.778Z,99623.34
2022-09-12T10:11:52.493Z,99623.75
2022-09-12T10:14:36.901Z,99621.88
2022-09-12T10:17:46.212Z,99603.06
2022-09-12T10:20:34.925Z,99614.84
2022-09-12T10:23:18.513Z,99616.09
2022-09-12T10:25:50.098Z,99613.94
2022-09-12T10:28:28.307Z,99604.00
2022-09-12T10:31:02.951Z,99609.69
2022-09-12T10:33:45.185Z,99607.47
2022-09-12T10:36:16.129Z,99605.09
2022-09-12T10:38:54.030Z,99607.81
2022-09-12T10:41:24.765Z,99613.69
2022-09-12T10:43:54.999Z,99617.44
2022-09-12T10:46:33.158Z,99614.44
2022-09-12T10:49:40.485Z,99613.72
2022-09-12T10:52:29.547Z,99605.78
2022-09-12T10:55:02.639Z,99608.84
2022-09-12T10:57:51.975Z,99604.00
2022-09-12T11:00:28.047Z,99603.91
2022-09-12T11:03:08.522Z,99605.25
2022-09-12T11:05:56.098Z,99597.75
2022-09-12T11:09:00.304Z,99605.09
2022-09-12T11:11:48.810Z,99598.28
2022-09-12T11:14:44.369Z,99600.16
2022-09-12T11:17:27.731Z,99597.81
2022-09-12T11:20:21.062Z,99588.06
2022-09-12T11:23:15.637Z,99603.69
2022-09-12T11:25:57.470Z,99601.31
2022-09-12T11:28:44.108Z,99598.16
2022-09-12T11:31:49.290Z,99587.78
2022-09-12T11:34:24.784Z,99596.59
2022-09-12T11:37:18.298Z,99591.16
2022-09-12T11:39:55.422Z,99594.00
2022-09-12T11:42:35.005Z,99590.69
2022-09-12T11:45:11.131Z,99597.50
2022-09-12T11:47:43.174Z,99592.66
2022-09-12T11:50:23.591Z,99597.25
2022-09-12T11:52:55.931Z,99592.91
2022-09-12T11:55:31.031Z,99595.81
2022-09-12T11:58:05.259Z,99597.25
2022-09-12T12:00:40.377Z,99592.03
2022-09-12T12:03:17.589Z,99594.09
2022-09-12T12:05:53.633Z,99599.22
2022-09-12T12:08:25.119Z,99589.59
2022-09-12T12:10:59.932Z,99587.88
2022-09-12T12:13:36.921Z,99593.13
2022-09-12T12:16:10.163Z,99588.66
2022-09-12T12:18:42.215Z,99584.59
2022-09-12T12:21:42.502Z,99589.53
2022-09-12T12:24:22.307Z,99590.16
2022-09-12T12:27:01.408Z,99590.03
2022-09-12T12:29:47.965Z,99585.50
2022-09-12T12:32:29.979Z,99590.56
2022-09-12T12:35:31.117Z,99585.50
2022-09-12T12:38:01.431Z,99584.75
2022-09-12T12:40:33.950Z,99582.66
2022-09-12T12:43:09.027Z,99582.19
2022-09-12T12:46:03.287Z,99585.72
2022-09-12T12:48:46.944Z,99592.09
2022-09-12T12:51:31.110Z,99586.25
2022-09-12T12:54:03.308Z,99575.06
2022-09-12T12:56:41.724Z,99587.75
2022-09-12T12:59:29.849Z,99587.09
2022-09-12T13:02:07.506Z,99582.78
2022-09-12T13:04:38.144Z,99584.81
2022-09-12T13:07:12.170Z,99585.38
2022-09-12T13:09:48.816Z,99580.38
2022-09-12T13:12:25.132Z,99577.56
2022-09-12T13:14:59.487Z,99575.56
2022-09-12T13:17:37.177Z,99578.59
2022-09-12T13:20:29.923Z,99577.88
2022-09-12T13:23:01.240Z,99558.31
2022-09-12T13:25:34.504Z,99568.69
2022-09-12T13:28:08.026Z,99573.00
2022-09-12T13:30:40.210Z,99575.38
2022-09-12T13:33:23.848Z,99566.38
2022-09-12T13:36:18.402Z,99568.59
2022-09-12T13:39:00.021Z,99565.16
2022-09-12T13:41:49.501Z,99562.41
2022-09-12T13:44:23.245Z,99553.88
2022-09-12T13:46:54.517Z,99562.84
2022-09-12T13:49:35.334Z,99552.94
2022-09-12T13:52:08.858Z,99552.69
2022-09-12T13:54:41.733Z,99554.66
2022-09-12T13:57:31.514Z,99550.81
2022-09-12T14:00:03.349Z,99551.22
2022-09-12T14:02:38.797Z,99540.63
2022-09-12T14:05:21.453Z,99545.06
2022-09-12T14:07:59.021Z,99551.50
2022-09-12T14:10:33.239Z,99533.44
2022-09-12T14:13:06.179Z,99544.50
2022-09-12T14:15:40.048Z,99538.81
2022-09-12T14:18:11.869Z,99534.03
2022-09-12T14:20:45.098Z,99537.34
2022-09-12T14:23:24.349Z,99537.44
2022-09-12T14:25:56.464Z,99528.63
2022-09-12T14:28:29.212Z,99538.78
2022-09-12T14:31:05.138Z,99526.56
2022-09-12T14:33:49.957Z,99536.75
2022-09-12T14:36:26.843Z,99535.03
2022-09-12T14:39:01.161Z,99539.59
2022-09-12T14:41:34.292Z,99537.75
2022-09-12T14:44:08.443Z,99542.41
2022-09-12T14:46:40.709Z,99544.78
2022-09-12T14:49:16.849Z,99539.63
2022-09-12T14:51:57.289Z,99544.19
2022-09-12T14:54:43.767Z,99538.41
2022-09-12T14:57:33.895Z,99539.09
2022-09-12T15:00:28.515Z,99547.59
2022-09-12T15:02:58.675Z,99539.53
2022-09-12T15:05:31.045Z,99542.66
2022-09-12T15:08:04.585Z,99536.25
2022-09-12T15:10:38.262Z,99541.19
2022-09-12T15:13:17.572Z,99536.44
2022-09-12T15:15:50.253Z,99535.41
2022-09-12T15:18:21.461Z,99535.81
2022-09-12T15:20:53.980Z,99532.28
2022-09-12T15:23:33.926Z,99532.09
2022-09-12T15:26:04.248Z,99533.94
2022-09-12T15:28:35.308Z,99531.06
2022-09-12T15:31:10.298Z,99534.16
2022-09-12T15:33:40.577Z,99533.97
2022-09-12T15:36:19.091Z,99533.16
2022-09-12T15:38:52.493Z,99535.84
2022-09-12T15:41:24.337Z,99534.97
2022-09-12T15:43:54.502Z,99537.69
2022-09-12T15:46:24.760Z,99540.59
2022-09-12T15:48:54.994Z,99544.13
2022-09-12T15:51:28.382Z,99549.72
2022-09-12T15:54:01.341Z,99546.19
2022-09-12T15:56:33.074Z,99542.31
2022-09-12T15:59:03.315Z,99546.66
2022-09-12T16:01:33.610Z,99542.94
2022-09-12T16:04:05.791Z,99542.13
2022-09-12T16:06:37.428Z,99540.28
2022-09-12T16:09:14.792Z,99541.53
2022-09-12T16:11:47.940Z,99549.38
2022-09-12T16:14:19.187Z,99558.66
2022-09-12T16:16:59.040Z,99550.19
2022-09-12T16:19:29.337Z,99546.63
2022-09-12T16:21:59.560Z,99555.53
2022-09-12T16:24:32.656Z,99554.28
2022-09-12T16:27:02.893Z,99553.44
2022-09-12T16:29:33.204Z,99549.09
2022-09-12T16:32:06.766Z,99555.69
2022-09-12T16:34:37.100Z,99554.03
2022-09-12T16:37:07.720Z,99553.19
2022-09-12T16:39:40.501Z,99549.03
2022-09-12T16:42:10.867Z,99553.56
2022-09-12T16:44:41.434Z,99555.53
2022-09-12T16:47:12.116Z,99545.63
2022-09-12T16:49:42.290Z,99549.94
2022-09-12T16:52:14.372Z,99553.81
2022-09-12T16:54:47.168Z,99558.94
2022-09-12T16:57:17.408Z,99555.44
2022-09-12T16:59:47.693Z,99557.75
2022-09-12T17:02:18.478Z,99562.28
2022-09-12T17:04:49.472Z,99567.03
2022-09-12T17:07:20.079Z,99561.84
2022-09-12T17:09:53.354Z,99568.00
2022-09-12T17:12:24.174Z,99572.94
2022-09-12T17:14:57.060Z,99578.38
2022-09-12T17:17:27.413Z,99580.69
2022-09-12T17:19:57.586Z,99583.78
2022-09-12T17:22:27.960Z,99584.81
2022-09-12T17:25:00.863Z,99580.25
2022-09-12T17:27:31.077Z,99590.00
2022-09-12T17:30:01.294Z,99586.56
2022-09-12T17:32:31.863Z,99596.13
2022-09-12T17:35:02.227Z,99597.94
2022-09-12T17:37:33.518Z,99601.78
2022-09-12T17:40:06.742Z,99609.09
2022-09-12T17:42:37.104Z,99616.56
2022-09-12T17:45:08.389Z,99626.53
2022-09-12T17:47:38.635Z,99628.13
2022-09-12T17:50:30.952Z,99631.38
2022-09-12T17:53:00.652Z,99630.63
2022-09-12T17:55:34.268Z,99628.19
2022-09-12T17:58:04.696Z,99636.84
2022-09-12T18:00:47.323Z,99653.91
2022-09-12T18:03:18.427Z,99657.41
2022-09-12T18:05:49.769Z,99658.63
2022-09-12T18:08:20.479Z,99663.03
2022-09-12T18:10:54.263Z,99660.00
2022-09-12T18:13:24.478Z,99668.19
2022-09-12T18:15:54.823Z,99674.22
2022-09-12T18:18:25.013Z,99680.56
2022-09-12T18:20:55.189Z,99681.75
2022-09-12T18:23:25.428Z,99683.28
2022-09-12T18:26:03.935Z,99695.38
2022-09-12T18:28:35.560Z,99700.63
2022-09-12T18:31:05.862Z,99702.84
2022-09-12T18:33:38.085Z,99694.69
2022-09-12T18:36:09.308Z,99705.38
2022-09-12T18:38:40.166Z,99707.66
2022-09-12T18:41:15.000Z,99705.81
2022-09-12T18:43:45.306Z,99718.03
2022-09-12T18:46:20.265Z,99720.06
2022-09-12T18:48:50.653Z,99716.56
2022-09-12T18:51:22.796Z,99715.09
2022-09-12T18:53:55.032Z,99713.69
2022-09-12T18:56:32.980Z,99723.44
2022-09-12T18:59:05.652Z,99711.09
2022-09-12T19:01:38.291Z,99713.84
2022-09-12T19:04:10.136Z,99719.66
2022-09-12T19:06:42.614Z,99720.53
2022-09-12T19:09:14.115Z,99723.63
2022-09-12T19:11:52.755Z,99717.63
2022-09-12T19:14:27.005Z,99723.78
2022-09-12T19:16:57.323Z,99718.97
2022-09-12T19:19:27.723Z,99718.13
2022-09-12T19:21:58.326Z,99715.50
2022-09-12T19:24:29.064Z,99726.19
2022-09-12T19:27:01.872Z,99728.19
2022-09-12T19:29:32.304Z,99733.53
2022-09-12T19:32:05.971Z,99729.88
2022-09-12T19:34:36.200Z,99727.25
2022-09-12T19:37:06.447Z,99729.25
2022-09-12T19:39:36.697Z,99733.25
2022-09-12T19:42:09.857Z,99745.56
2022-09-12T19:44:40.049Z,99735.28
2022-09-12T19:47:10.954Z,99746.59
2022-09-12T19:49:42.476Z,99746.75
2022-09-12T19:52:17.228Z,99748.56
2022-09-12T19:54:48.280Z,99745.91
2022-09-12T19:57:21.050Z,99754.88
2022-09-12T19:59:51.418Z,99755.88
2022-09-12T20:02:21.677Z,99761.22
2022-09-12T20:04:51.915Z,99757.19
2022-09-12T20:07:22.187Z,99753.88
2022-09-12T20:09:52.744Z,99749.19
2022-09-12T20:12:25.489Z,99756.00
2022-09-12T20:14:55.712Z,99749.19
2022-09-12T20:17:25.895Z,99753.34
2022-09-12T20:19:56.448Z,99754.13
2022-09-12T20:22:26.770Z,99741.31
2022-09-12T20:24:57.043Z,99753.28
2022-09-12T20:27:29.936Z,99749.91
2022-09-12T20:30:00.523Z,99743.69
2022-09-12T20:32:31.670Z,99754.53
2022-09-12T20:35:01.805Z,99751.13
2022-09-12T20:37:32.802Z,99763.69
2022-09-12T20:40:03.071Z,99755.53
2022-09-12T20:42:36.078Z,99753.66
2022-09-12T20:45:07.030Z,99756.41
2022-09-12T20:47:37.114Z,99753.41
2022-09-12T20:50:08.342Z,99755.69
2022-09-12T20:52:38.447Z,99744.84
2022-09-12T20:55:09.594Z,99758.91
2022-09-12T20:57:42.443Z,99753.41
2022-09-12T21:00:14.916Z,99749.53
2022-09-12T21:02:45.054Z,99750.00
2022-09-12T21:05:15.268Z,99754.78
2022-09-12T21:07:45.444Z,99762.59
2022-09-12T21:10:15.630Z,99751.44
2022-09-12T21:12:48.370Z,99740.94
2022-09-12T21:15:18.816Z,99750.06
2022-09-12T21:17:49.272Z,99748.75
2022-09-12T21:20:19.669Z,99755.34
2022-09-12T21:22:49.789Z,99754.13
2022-09-12T21:25:19.983Z,99752.91
2022-09-12T21:27:52.865Z,99759.34
2022-09-12T21:30:23.190Z,99759.25
2022-09-12T21:32:53.293Z,99758.72
2022-09-12T21:35:23.554Z,99760.16
2022-09-12T21:37:54.614Z,99751.66
2022-09-12T21:40:25.163Z,99751.13
2022-09-12T21:42:58.219Z,99751.91
2022-09-12T21:45:28.477Z,99753.34
2022-09-12T21:47:58.954Z,99752.09
2022-09-12T21:50:29.714Z,99752.41
2022-09-12T21:53:00.054Z,99751.03
2022-09-12T21:55:30.244Z,99747.19
2022-09-12T21:58:02.947Z,99739.81
2022-09-12T22:00:33.104Z,99735.94
2022-09-12T22:03:03.578Z,99735.25
2022-09-12T22:05:34.574Z,99730.22
2022-09-12T22:08:05.210Z,99734.16
2022-09-12T22:10:35.600Z,99729.97
2022-09-12T22:13:08.338Z,99730.59
2022-09-12T22:15:41.055Z,99731.72
2022-09-12T22:18:11.741Z,99732.69
2022-09-12T22:20:41.914Z,99731.03
2022-09-12T22:23:26.798Z,99734.66
2022-09-12T22:25:58.662Z,99730.31
2022-09-12T22:28:32.362Z,99740.66
2022-09-12T22:31:02.491Z,99746.19
2022-09-12T22:33:32.664Z,99742.16
2022-09-12T22:36:02.835Z,99742.31
2022-09-12T22:38:33.437Z,99741.06
2022-09-12T22:41:06.550Z,99738.69
2022-09-12T22:43:39.844Z,99738.44
2022-09-12T22:46:12.350Z,99744.28
2022-09-12T22:48:43.330Z,99739.28
2022-09-12T22:51:14.204Z,99743.47
2022-09-12T22:53:45.073Z,99731.34
2022-09-12T22:56:15.433Z,99734.41
2022-09-12T22:58:48.251Z,99750.63
2022-09-12T23:01:18.684Z,99749.09
2022-09-12T23:03:49.104Z,99755.50
2022-09-12T23:06:20.002Z,99760.94
2022-09-12T23:08:50.157Z,99756.75
2022-09-12T23:11:22.345Z,99753.28
2022-09-12T23:13:55.095Z,99758.72
2022-09-12T23:16:28.525Z,99760.66
2022-09-12T23:18:58.689Z,99762.59
2022-09-12T23:21:30.126Z,99753.97
2022-09-12T23:24:03.186Z,99753.56
2022-09-12T23:26:33.528Z,99756.50
2022-09-12T23:29:08.442Z,99754.00
2022-09-12T23:31:39.027Z,99761.38
2022-09-12T23:34:09.364Z,99757.06
2022-09-12T23:36:39.663Z,99753.72
2022-09-12T23:39:09.994Z,99758.44
2022-09-12T23:41:40.650Z,99759.16
2022-09-12T23:44:13.464Z,99760.38
2022-09-12T23:46:48.728Z,99752.88
2022-09-12T23:49:18.954Z,99760.22
2022-09-12T23:51:49.153Z,99764.69
2022-09-12T23:54:19.559Z,99758.81
2022-09-12T23:56:49.770Z,99757.47
2022-09-12T23:59:22.540Z,99763.03
